createdAt,value
2023-02-01T00:00:20.527Z,15.50
2023-02-01T00:02:48.846Z,16.07
2023-02-01T00:05:17.068Z,15.87
2023-02-01T00:07:45.153Z,17.00
2023-02-01T00:10:13.534Z,16.90
2023-02-01T00:12:42.937Z,14.73
2023-02-01T00:15:11.278Z,15.57
2023-02-01T00:17:39.375Z,16.97
2023-02-01T00:20:08.977Z,19.40
2023-02-01T00:22:36.957Z,18.47
2023-02-01T00:25:05.856Z,16.37
2023-02-01T00:27:34.104Z,17.40
2023-02-01T00:30:04.083Z,16.80
2023-02-01T00:32:32.961Z,16.30
2023-02-01T00:35:00.990Z,18.40
2023-02-01T00:37:28.989Z,17.00
2023-02-01T00:39:57.119Z,19.90
2023-02-01T00:42:25.342Z,23.73
2023-02-01T00:44:53.321Z,18.20
2023-02-01T00:47:22.798Z,16.87
2023-02-01T00:49:50.770Z,15.87
2023-02-01T00:52:19.188Z,16.23
2023-02-01T00:54:47.182Z,17.33
2023-02-01T00:57:15.161Z,15.93
2023-02-01T00:59:43.135Z,14.73
2023-02-01T01:02:11.978Z,15.43
2023-02-01T01:04:41.424Z,15.03
2023-02-01T01:07:09.452Z,15.57
2023-02-01T01:09:37.503Z,16.23
2023-02-01T01:12:05.525Z,15.90
2023-02-01T01:14:34.513Z,15.73
2023-02-01T01:17:02.643Z,15.10
2023-02-01T01:19:30.776Z,51.60
2023-02-01T01:22:00.286Z,20.43
2023-02-01T01:24:28.261Z,17.50
2023-02-01T01:26:56.389Z,15.80
2023-02-01T01:29:24.410Z,15.93
2023-02-01T01:31:52.424Z,16.33
2023-02-01T01:34:20.457Z,15.83
2023-02-01T01:36:48.450Z,15.13
2023-02-01T01:39:18.014Z,14.60
2023-02-01T01:41:46.111Z,14.53
2023-02-01T01:44:47.384Z,14.23
2023-02-01T01:47:17.680Z,14.50
2023-02-01T01:49:46.649Z,13.80
2023-02-01T01:52:15.563Z,14.37
2023-02-01T01:54:47.655Z,14.97
2023-02-01T01:57:20.709Z,14.93
2023-02-01T01:59:52.705Z,14.30
2023-02-01T02:02:21.030Z,13.57
2023-02-01T02:04:49.707Z,14.97
2023-02-01T02:07:22.310Z,13.80
2023-02-01T02:10:00.471Z,13.70
2023-02-01T02:12:29.634Z,13.10
2023-02-01T02:14:58.041Z,13.40
2023-02-01T02:17:39.569Z,13.20
2023-02-01T02:20:44.894Z,12.47
2023-02-01T02:23:45.445Z,13.33
2023-02-01T02:26:41.948Z,11.47
2023-02-01T02:29:54.126Z,11.77
2023-02-01T02:33:06.157Z,11.67
2023-02-01T02:35:43.389Z,11.10
2023-02-01T02:38:20.473Z,11.90
2023-02-01T02:40:56.226Z,10.80
2023-02-01T02:43:44.680Z,10.40
2023-02-01T02:46:40.717Z,10.63
2023-02-01T02:49:14.800Z,11.40
2023-02-01T02:52:06.808Z,10.53
2023-02-01T02:54:48.248Z,10.87
2023-02-01T02:57:38.491Z,10.43
2023-02-01T03:00:28.027Z,10.50
2023-02-01T03:03:14.034Z,10.40
2023-02-01T03:05:45.477Z,11.07
2023-02-01T03:08:17.197Z,10.33
2023-02-01T03:10:53.499Z,10.77
2023-02-01T03:13:28.541Z,12.03
2023-02-01T03:16:01.787Z,10.97
2023-02-01T03:18:35.636Z,10.33
2023-02-01T03:21:10.953Z,10.37
2023-02-01T03:23:40.721Z,10.40
2023-02-01T03:26:16.172Z,10.50
2023-02-01T03:28:50.313Z,11.27
2023-02-01T03:31:18.878Z,10.03
2023-02-01T03:33:47.002Z,18.77
2023-02-01T03:36:23.922Z,12.67
2023-02-01T03:39:00.718Z,13.07
2023-02-01T03:41:34.962Z,9.30
2023-02-01T03:44:11.173Z,10.00
2023-02-01T03:46:44.013Z,11.73
2023-02-01T03:49:16.732Z,10.37
2023-02-01T03:51:44.745Z,10.17
2023-02-01T03:54:17.692Z,9.93
2023-02-01T03:56:48.281Z,10.93
2023-02-01T03:59:16.869Z,10.87
2023-02-01T04:01:45.001Z,11.13
2023-02-01T04:04:20.900Z,10.97
2023-02-01T04:06:49.353Z,12.23
2023-02-01T04:09:19.213Z,11.23
2023-02-01T04:11:47.232Z,10.67
2023-02-01T04:14:15.228Z,10.93
2023-02-01T04:16:43.341Z,10.73
2023-02-01T04:19:11.655Z,11.23
2023-02-01T04:21:39.848Z,11.07
2023-02-01T04:24:09.612Z,10.90
2023-02-01T04:26:39.096Z,11.07
2023-02-01T04:29:07.213Z,12.47
2023-02-01T04:31:37.537Z,10.57
2023-02-01T04:34:05.878Z,10.97
2023-02-01T04:36:34.047Z,11.40
2023-02-01T04:39:02.077Z,11.07
2023-02-01T04:41:31.288Z,11.40
2023-02-01T04:44:00.739Z,10.87
2023-02-01T04:46:28.862Z,10.60
2023-02-01T04:48:56.872Z,11.07
2023-02-01T04:51:25.220Z,9.93
2023-02-01T04:53:53.346Z,9.53
2023-02-01T04:56:21.540Z,9.83
2023-02-01T04:58:49.654Z,10.37
2023-02-01T05:01:19.127Z,9.80
2023-02-01T05:03:47.126Z,8.90
2023-02-01T05:06:15.321Z,13.33
2023-02-01T05:08:43.504Z,9.10
2023-02-01T05:11:31.977Z,9.63
2023-02-01T05:13:59.221Z,8.47
2023-02-01T05:16:29.538Z,8.07
2023-02-01T05:18:57.645Z,7.23
2023-02-01T05:21:25.806Z,7.93
2023-02-01T05:24:14.182Z,7.90
2023-02-01T05:26:43.361Z,8.27
2023-02-01T05:29:12.248Z,7.80
2023-02-01T05:31:42.066Z,7.83
2023-02-01T05:34:10.116Z,6.53
2023-02-01T05:36:38.129Z,6.87
2023-02-01T05:39:06.383Z,6.27
2023-02-01T05:41:34.510Z,6.53
2023-02-01T05:44:02.491Z,6.43
2023-02-01T05:46:30.879Z,7.17
2023-02-01T05:49:00.281Z,6.97
2023-02-01T05:51:28.351Z,6.80
2023-02-01T05:53:56.591Z,6.43
2023-02-01T05:56:24.581Z,7.20
2023-02-01T05:58:52.633Z,7.07
2023-02-01T06:01:20.652Z,6.77
2023-02-01T06:03:48.669Z,6.97
2023-02-01T06:06:19.941Z,7.50
2023-02-01T06:08:48.123Z,6.70
2023-02-01T06:11:26.749Z,6.70
2023-02-01T06:13:59.909Z,7.10
2023-02-01T06:16:28.450Z,8.03
2023-02-01T06:18:56.607Z,7.57
2023-02-01T06:21:26.305Z,6.83
2023-02-01T06:23:55.172Z,6.33
2023-02-01T06:26:23.676Z,6.10
2023-02-01T06:28:52.252Z,6.77
2023-02-01T06:31:20.402Z,6.53
2023-02-01T06:33:49.896Z,7.10
2023-02-01T06:36:19.766Z,7.30
2023-02-01T06:38:49.389Z,8.87
2023-02-01T06:41:18.450Z,7.50
2023-02-01T06:43:47.281Z,7.20
2023-02-01T06:46:16.148Z,8.33
2023-02-01T06:48:44.298Z,8.73
2023-02-01T06:51:26.466Z,8.87
2023-02-01T06:53:56.227Z,10.30
2023-02-01T06:56:24.738Z,10.27
2023-02-01T06:58:52.979Z,9.97
2023-02-01T07:01:21.149Z,10.37
2023-02-01T07:03:50.071Z,16.33
2023-02-01T07:06:18.223Z,11.03
2023-02-01T07:08:46.554Z,10.13
2023-02-01T07:11:17.799Z,10.30
2023-02-01T07:13:46.662Z,10.40
2023-02-01T07:16:16.389Z,11.07
2023-02-01T07:18:44.569Z,10.90
2023-02-01T07:21:12.727Z,10.77
2023-02-01T07:23:40.929Z,11.83
2023-02-01T07:26:09.912Z,11.43
2023-02-01T07:28:39.499Z,11.43
2023-02-01T07:31:09.232Z,12.53
2023-02-01T07:33:37.504Z,11.17
2023-02-01T07:36:08.057Z,79.70
2023-02-01T07:38:36.358Z,18.20
2023-02-01T07:41:06.994Z,16.93
2023-02-01T07:43:35.274Z,17.63
2023-02-01T07:46:06.151Z,15.70
2023-02-01T07:48:35.016Z,14.63
2023-02-01T07:51:04.949Z,19.53
2023-02-01T07:53:35.697Z,20.20
2023-02-01T07:56:04.656Z,14.33
2023-02-01T07:58:32.673Z,18.13
2023-02-01T08:01:18.243Z,21.47
2023-02-01T08:03:48.051Z,17.90
2023-02-01T08:06:16.211Z,18.77
2023-02-01T08:08:46.299Z,34.67
2023-02-01T08:11:15.364Z,25.80
2023-02-01T08:13:43.952Z,27.00
2023-02-01T08:16:13.973Z,20.53
2023-02-01T08:18:42.820Z,21.07
2023-02-01T08:21:14.698Z,16.67
2023-02-01T08:23:43.777Z,18.20
2023-02-01T08:26:15.320Z,14.97
2023-02-01T08:28:45.366Z,13.70
2023-02-01T08:31:17.291Z,12.20
2023-02-01T08:33:46.314Z,10.80
2023-02-01T08:36:15.941Z,11.43
2023-02-01T08:38:44.401Z,11.30
2023-02-01T08:41:15.325Z,10.03
2023-02-01T08:43:44.425Z,11.73
2023-02-01T08:46:13.692Z,12.70
2023-02-01T08:48:43.324Z,12.13
2023-02-01T08:51:14.058Z,13.03
2023-02-01T08:53:43.919Z,12.60
2023-02-01T08:56:13.578Z,12.87
2023-02-01T08:58:42.246Z,12.73
2023-02-01T09:01:12.865Z,12.23
2023-02-01T09:03:41.114Z,11.73
2023-02-01T09:06:11.197Z,14.30
2023-02-01T09:08:39.797Z,12.83
2023-02-01T09:11:14.557Z,11.97
2023-02-01T09:13:42.837Z,11.00
2023-02-01T09:16:11.134Z,11.77
2023-02-01T09:18:46.106Z,9.50
2023-02-01T09:21:23.946Z,10.27
2023-02-01T09:23:53.065Z,9.67
2023-02-01T09:26:31.442Z,8.97
2023-02-01T09:29:00.970Z,9.53
2023-02-01T09:31:29.111Z,9.37
2023-02-01T09:33:59.576Z,7.53
2023-02-01T09:36:30.009Z,9.10
2023-02-01T09:38:58.932Z,8.57
2023-02-01T09:41:43.818Z,7.10
2023-02-01T09:44:35.584Z,7.70
2023-02-01T09:47:13.677Z,7.90
2023-02-01T09:49:53.795Z,7.10
2023-02-01T09:52:31.319Z,6.83
2023-02-01T09:55:03.870Z,7.23
2023-02-01T09:57:44.058Z,6.60
2023-02-01T10:00:20.538Z,6.30
2023-02-01T10:02:48.679Z,6.70
2023-02-01T10:05:24.133Z,6.50
2023-02-01T10:08:03.238Z,6.47
2023-02-01T10:10:36.381Z,5.80
2023-02-01T10:13:21.293Z,5.73
2023-02-01T10:15:57.303Z,5.17
2023-02-01T10:19:04.369Z,5.30
2023-02-01T10:21:46.065Z,7.07
2023-02-01T10:24:42.741Z,5.60
2023-02-01T10:27:22.838Z,5.50
2023-02-01T10:30:00.676Z,3.93
2023-02-01T10:32:33.406Z,5.33
2023-02-01T10:35:03.461Z,4.83
2023-02-01T10:37:33.342Z,3.53
2023-02-01T10:40:06.655Z,3.10
2023-02-01T10:42:34.917Z,3.70
2023-02-01T10:45:06.314Z,5.53
2023-02-01T10:47:34.424Z,5.67
2023-02-01T10:50:16.058Z,4.67
2023-02-01T10:52:50.348Z,4.87
2023-02-01T10:55:40.769Z,4.67
2023-02-01T10:58:16.454Z,3.80
2023-02-01T11:00:49.458Z,3.83
2023-02-01T11:03:44.477Z,4.10
2023-02-01T11:06:29.414Z,4.27
2023-02-01T11:08:59.220Z,4.83
2023-02-01T11:11:27.628Z,3.97
2023-02-01T11:13:58.473Z,4.13
2023-02-01T11:16:37.215Z,3.93
2023-02-01T11:19:06.651Z,4.23
2023-02-01T11:21:34.988Z,3.60
2023-02-01T11:24:05.089Z,2.83
2023-02-01T11:26:35.405Z,2.40
2023-02-01T11:29:07.186Z,3.00
2023-02-01T11:31:37.512Z,2.40
2023-02-01T11:34:10.934Z,2.43
2023-02-01T11:36:39.497Z,2.00
2023-02-01T11:39:25.163Z,2.42
2023-02-01T11:42:06.387Z,2.27
2023-02-01T11:44:37.837Z,2.33
2023-02-01T11:47:27.718Z,2.63
2023-02-01T11:49:58.192Z,2.50
2023-02-01T11:52:47.075Z,3.10
2023-02-01T11:55:27.666Z,3.43
2023-02-01T11:58:06.653Z,2.83
2023-02-01T12:00:48.412Z,3.37
2023-02-01T12:03:52.399Z,2.43
2023-02-01T12:06:31.227Z,3.23
2023-02-01T12:09:20.081Z,2.57
2023-02-01T12:12:00.978Z,3.37
2023-02-01T12:14:58.705Z,2.50
2023-02-01T12:17:45.019Z,1.87
2023-02-01T12:20:27.267Z,2.30
2023-02-01T12:23:09.034Z,1.77
2023-02-01T12:25:56.015Z,1.90
2023-02-01T12:29:06.382Z,1.97
2023-02-01T12:31:53.813Z,1.90
2023-02-01T12:34:58.385Z,1.97
2023-02-01T12:37:56.865Z,2.17
2023-02-01T12:40:53.531Z,1.90
2023-02-01T12:43:57.960Z,2.13
2023-02-01T12:46:48.047Z,1.60
2023-02-01T12:49:27.773Z,1.80
2023-02-01T12:52:01.020Z,1.70
2023-02-01T12:54:37.523Z,1.67
2023-02-01T12:57:09.173Z,1.37
2023-02-01T12:59:42.432Z,2.47
2023-02-01T13:02:18.684Z,1.50
2023-02-01T13:04:59.854Z,1.33
2023-02-01T13:07:32.576Z,1.03
2023-02-01T13:10:10.468Z,1.13
2023-02-01T13:12:42.979Z,1.50
2023-02-01T13:15:17.923Z,1.70
2023-02-01T13:17:48.554Z,1.90
2023-02-01T13:20:23.665Z,1.83
2023-02-01T13:22:56.653Z,1.20
2023-02-01T13:25:34.009Z,1.00
2023-02-01T13:28:06.954Z,1.00
2023-02-01T13:31:00.704Z,2.00
2023-02-01T13:33:56.171Z,14.87
2023-02-01T13:36:55.801Z,13.73
2023-02-01T13:39:53.929Z,2.33
2023-02-01T13:42:27.310Z,6.87
2023-02-01T13:45:00.882Z,1.60
2023-02-01T13:47:34.505Z,30.53
2023-02-01T13:50:06.596Z,30.53
2023-02-01T13:52:40.297Z,8.40
2023-02-01T13:55:28.329Z,1.50
2023-02-01T13:58:06.767Z,4.57
2023-02-01T14:00:37.691Z,10.67
2023-02-01T14:03:24.694Z,6.00
2023-02-01T14:06:19.509Z,1.60
2023-02-01T14:09:09.416Z,3.83
2023-02-01T14:11:43.697Z,1.30
2023-02-01T14:14:44.069Z,21.33
2023-02-01T14:17:41.672Z,2.20
2023-02-01T14:20:49.871Z,1.00
2023-02-01T14:23:32.709Z,1.37
2023-02-01T14:26:23.016Z,1.87
2023-02-01T14:29:03.888Z,1.40
2023-02-01T14:31:53.066Z,1.63
2023-02-01T14:34:24.665Z,1.40
2023-02-01T14:37:00.454Z,2.63
2023-02-01T14:39:36.521Z,1.73
2023-02-01T14:42:16.209Z,1.77
2023-02-01T14:44:58.957Z,2.00
2023-02-01T14:47:33.278Z,1.70
2023-02-01T14:50:29.939Z,2.03
2023-02-01T14:53:13.254Z,1.50
2023-02-01T14:55:44.082Z,1.60
2023-02-01T14:58:20.554Z,1.57
2023-02-01T15:00:56.283Z,2.27
2023-02-01T15:03:45.703Z,1.63
2023-02-01T15:06:27.766Z,2.10
2023-02-01T15:08:59.941Z,1.80
2023-02-01T15:11:28.273Z,4.13
2023-02-01T15:13:57.736Z,2.73
2023-02-01T15:16:27.750Z,1.97
2023-02-01T15:19:15.820Z,2.00
2023-02-01T15:21:49.283Z,2.37
2023-02-01T15:24:22.511Z,2.40
2023-02-01T15:26:51.297Z,1.70
2023-02-01T15:29:20.467Z,2.10
2023-02-01T15:31:50.638Z,2.70
2023-02-01T15:34:20.754Z,2.50
2023-02-01T15:37:02.508Z,3.10
2023-02-01T15:39:33.407Z,3.73
2023-02-01T15:42:10.945Z,4.23
2023-02-01T15:44:42.568Z,2.63
2023-02-01T15:47:17.258Z,4.83
2023-02-01T15:49:52.633Z,3.10
2023-02-01T15:52:26.884Z,5.20
2023-02-01T15:54:57.720Z,3.00
2023-02-01T15:57:31.777Z,2.40
2023-02-01T16:00:02.425Z,4.80
2023-02-01T16:02:36.304Z,4.33
2023-02-01T16:05:07.789Z,2.67
2023-02-01T16:07:36.528Z,3.07
2023-02-01T16:10:25.515Z,2.63
2023-02-01T16:12:58.789Z,3.00
2023-02-01T16:15:26.917Z,5.57
2023-02-01T16:17:55.184Z,2.80
2023-02-01T16:20:24.613Z,12.17
2023-02-01T16:22:52.720Z,4.67
2023-02-01T16:25:20.688Z,4.97
2023-02-01T16:27:48.686Z,24.27
2023-02-01T16:30:23.865Z,8.13
2023-02-01T16:32:55.983Z,19.03
2023-02-01T16:35:28.298Z,29.63
2023-02-01T16:37:56.654Z,40.20
2023-02-01T16:40:24.929Z,13.90
2023-02-01T16:42:56.166Z,6.00
2023-02-01T16:45:24.464Z,4.50
2023-02-01T16:47:56.512Z,3.50
2023-02-01T16:50:27.512Z,13.30
2023-02-01T16:52:55.725Z,5.80
2023-02-01T16:55:24.497Z,5.80
2023-02-01T16:57:52.929Z,6.50
2023-02-01T17:00:25.037Z,4.93
2023-02-01T17:02:54.336Z,8.20
2023-02-01T17:05:23.142Z,11.13
2023-02-01T17:07:53.609Z,7.10
2023-02-01T17:10:33.327Z,7.70
2023-02-01T17:13:01.903Z,5.93
2023-02-01T17:15:35.557Z,8.70
2023-02-01T17:18:04.479Z,9.77
2023-02-01T17:20:33.819Z,25.33
2023-02-01T17:23:03.270Z,6.07
2023-02-01T17:25:32.918Z,4.77
2023-02-01T17:28:01.224Z,20.73
2023-02-01T17:30:29.663Z,9.83
2023-02-01T17:32:57.771Z,4.90
2023-02-01T17:35:29.827Z,5.60
2023-02-01T17:37:57.981Z,14.30
2023-02-01T17:40:29.766Z,14.30
2023-02-01T17:42:58.339Z,9.97
2023-02-01T17:45:37.068Z,14.70
2023-02-01T17:48:06.731Z,10.40
2023-02-01T17:50:38.128Z,89.40
2023-02-01T17:53:09.860Z,28.53
2023-02-01T17:55:41.994Z,24.53
2023-02-01T17:58:11.354Z,73.00
2023-02-01T18:00:39.457Z,43.33
2023-02-01T18:03:07.418Z,55.73
2023-02-01T18:05:41.389Z,22.97
2023-02-01T18:08:09.769Z,23.67
2023-02-01T18:10:39.364Z,22.40
2023-02-01T18:13:07.299Z,102.50
2023-02-01T18:15:36.161Z,51.30
2023-02-01T18:18:04.220Z,36.90
2023-02-01T18:20:32.412Z,23.60
2023-02-01T18:23:00.465Z,21.23
2023-02-01T18:25:34.171Z,17.70
2023-02-01T18:28:03.878Z,16.47
2023-02-01T18:30:33.899Z,77.90
2023-02-01T18:33:01.877Z,44.17
2023-02-01T18:35:31.846Z,17.37
2023-02-01T18:38:00.133Z,15.77
2023-02-01T18:40:31.493Z,19.37
2023-02-01T18:42:59.909Z,15.10
2023-02-01T18:45:32.498Z,14.87
2023-02-01T18:48:01.016Z,14.83
2023-02-01T18:50:31.443Z,14.97
2023-02-01T18:53:01.113Z,17.73
2023-02-01T18:55:32.482Z,17.60
2023-02-01T18:58:00.974Z,19.00
2023-02-01T19:00:31.139Z,24.70
2023-02-01T19:02:59.423Z,27.03
2023-02-01T19:05:28.051Z,32.73
2023-02-01T19:07:56.469Z,26.77
2023-02-01T19:10:25.040Z,25.47
2023-02-01T19:12:55.456Z,26.10
2023-02-01T19:15:23.782Z,28.53
2023-02-01T19:17:55.828Z,22.83
2023-02-01T19:20:26.749Z,20.47
2023-02-01T19:22:55.590Z,24.50
2023-02-01T19:25:26.839Z,23.83
2023-02-01T19:27:55.693Z,30.27
2023-02-01T19:30:25.252Z,32.43
2023-02-01T19:32:55.175Z,26.13
2023-02-01T19:35:23.880Z,39.37
2023-02-01T19:37:52.331Z,66.60
2023-02-01T19:40:21.299Z,28.37
2023-02-01T19:42:50.347Z,78.17
2023-02-01T19:45:19.517Z,55.37
2023-02-01T19:47:47.614Z,29.77
2023-02-01T19:50:20.121Z,23.53
2023-02-01T19:52:51.779Z,16.43
2023-02-01T19:55:23.122Z,17.80
2023-02-01T19:57:51.407Z,15.93
2023-02-01T20:00:21.634Z,17.97
2023-02-01T20:02:50.152Z,20.87
2023-02-01T20:05:23.664Z,19.70
2023-02-01T20:07:51.911Z,18.13
2023-02-01T20:10:20.106Z,19.17
2023-02-01T20:12:49.539Z,20.10
2023-02-01T20:15:17.644Z,17.00
2023-02-01T20:17:45.877Z,17.23
2023-02-01T20:20:15.462Z,15.57
2023-02-01T20:22:45.996Z,16.03
2023-02-01T20:25:14.930Z,16.10
2023-02-01T20:27:43.721Z,27.50
2023-02-01T20:30:19.917Z,34.20
2023-02-01T20:32:49.576Z,66.20
2023-02-01T20:35:17.764Z,28.33
2023-02-01T20:37:48.939Z,21.40
2023-02-01T20:40:17.100Z,23.57
2023-02-01T20:42:45.233Z,33.73
2023-02-01T20:45:13.139Z,31.57
2023-02-01T20:47:42.362Z,10.97
2023-02-01T20:50:12.019Z,10.07
2023-02-01T20:52:40.153Z,10.30
2023-02-01T20:55:10.364Z,10.63
2023-02-01T20:57:38.368Z,9.73
2023-02-01T21:00:10.165Z,10.03
2023-02-01T21:02:38.513Z,8.47
2023-02-01T21:05:07.263Z,9.60
2023-02-01T21:07:35.455Z,9.20
2023-02-01T21:10:03.479Z,9.53
2023-02-01T21:12:32.901Z,12.30
2023-02-01T21:15:00.922Z,10.47
2023-02-01T21:17:31.391Z,9.60
2023-02-01T21:19:59.613Z,11.10
2023-02-01T21:22:27.920Z,11.03
2023-02-01T21:24:55.999Z,11.77
2023-02-01T21:27:24.175Z,10.83
2023-02-01T21:29:53.556Z,9.60
2023-02-01T21:32:21.499Z,8.90
2023-02-01T21:34:49.421Z,9.40
2023-02-01T21:37:17.427Z,9.97
2023-02-01T21:39:45.587Z,9.73
2023-02-01T21:42:16.658Z,10.40
2023-02-01T21:44:46.272Z,10.43
2023-02-01T21:47:17.641Z,9.80
2023-02-01T21:49:45.845Z,9.53
2023-02-01T21:52:15.019Z,9.03
2023-02-01T21:54:43.017Z,10.40
2023-02-01T21:57:12.538Z,12.67
2023-02-01T21:59:40.729Z,13.50
2023-02-01T22:02:13.442Z,17.53
2023-02-01T22:04:42.905Z,21.00
2023-02-01T22:07:11.341Z,13.87
2023-02-01T22:09:39.678Z,11.97
2023-02-01T22:12:08.475Z,13.33
2023-02-01T22:14:36.608Z,9.77
2023-02-01T22:17:04.711Z,8.43
2023-02-01T22:19:32.668Z,8.60
2023-02-01T22:22:02.047Z,9.43
2023-02-01T22:24:30.337Z,21.60
2023-02-01T22:27:13.852Z,13.20
2023-02-01T22:29:42.952Z,9.87
2023-02-01T22:32:12.168Z,8.03
2023-02-01T22:34:40.328Z,8.87
2023-02-01T22:37:11.148Z,7.70
2023-02-01T22:39:40.109Z,12.30
2023-02-01T22:42:08.060Z,8.70
2023-02-01T22:44:36.052Z,10.77
2023-02-01T22:47:04.318Z,10.63
2023-02-01T22:49:32.237Z,11.60
2023-02-01T22:52:00.407Z,13.30
2023-02-01T22:54:29.956Z,11.97
2023-02-01T22:57:00.198Z,12.63
2023-02-01T22:59:28.908Z,12.67
2023-02-01T23:01:56.850Z,19.43
2023-02-01T23:04:25.228Z,12.97
2023-02-01T23:06:53.376Z,10.30
2023-02-01T23:09:23.541Z,11.23
2023-02-01T23:11:53.293Z,9.20
2023-02-01T23:14:21.530Z,8.60
2023-02-01T23:16:51.002Z,10.50
2023-02-01T23:19:20.463Z,11.70
2023-02-01T23:21:48.598Z,12.77
2023-02-01T23:24:16.649Z,13.23
2023-02-01T23:26:44.754Z,15.30
2023-02-01T23:29:18.493Z,15.00
2023-02-01T23:31:46.598Z,12.67
2023-02-01T23:34:14.634Z,12.20
2023-02-01T23:36:42.567Z,12.03
2023-02-01T23:39:10.571Z,11.70
2023-02-01T23:41:38.524Z,11.10
2023-02-01T23:44:06.835Z,11.03
2023-02-01T23:46:38.906Z,12.03
2023-02-01T23:49:08.644Z,12.97
2023-02-01T23:51:37.043Z,12.23
2023-02-01T23:54:06.521Z,13.77
2023-02-01T23:56:36.197Z,12.20
2023-02-01T23:59:07.113Z,12.07
